首页
METAR-TAF:

METAR-TAF

机场 :

巴林, 巴林

巴林国际机场

纬度: 26-16N, 经度: 050-39E, 海拔: 2米

当前天气观测

该预报发布于21分钟前的22:00 UTC
风速4节,风向
温度 25°C
湿度 79%
气压 1009 hPa
能见度10公里或以上
1500米以下无云,无积雨云

METAR: OBBI 252200Z 01004KT CAVOK 25/21 Q1009 NOSIG

时间: 01:21 (22:21 UTC)

预报

该预报发布于11小时和21分钟前的11:00 UTC
预报有效从25日的 12点(UTC)到 26日的 18点(UTC)
风速10节,风向
能见度10公里或以上
1500米以下无云,无积雨云
短暂存在
从 25日的 12点(UTC)到 25日的 15点(UTC)
风速20节,风向北转西北,有时为35节阵风
能見度: 5000
少量云层高于4000英尺, 积雨云.
多云层高于10000英尺
雷暴, 小雨
成为
从 25日的 20点(UTC)到 25日的 22点(UTC)
风速5节,风向多变
几率 30% :
短暂存在
从 26日的 02点(UTC)到 26日的 12点(UTC)
风速20节,风向北转西北,有时为35节阵风
能見度: 5000
少量云层高于4000英尺, 积雨云.
多云层高于10000英尺
雷暴, 小雨

TAF: OBBI 251100Z 2512/2618 35010KT CAVOK TEMPO 2512/2515 33020G35KT 5000 -TSRA FEW040CB BKN100 BECMG 2520/2522 VRB05KT PROB30 TEMPO 2602/2612 33020G35KT 5000 -TSRA FEW040CB BKN100

超过4000个机场的气象观测和天气预报(METAR&TAF报告)。

可查询的气象台以黄色和红色小点在地图上表示。

将鼠标移到小点上方,可查看气象台名称。

然后点击查看天气观测和预报。

如需切换地图:点击带黑十字的绿色按钮放大地图;点击带横线的绿色按钮缩小地图;或者点击绿色箭头查看邻近地区的地图。


METAR-TAF: